createdAt,value
2018-11-02T00:01:30.538Z,5.40
2018-11-02T00:06:34.072Z,5.63
2018-11-02T00:11:37.374Z,5.00
2018-11-02T00:16:40.581Z,4.97
2018-11-02T00:21:43.759Z,5.07
2018-11-02T00:26:46.997Z,5.00
2018-11-02T00:31:55.773Z,4.50
2018-11-02T00:36:58.974Z,4.77
2018-11-02T00:42:02.186Z,4.70
2018-11-02T00:47:05.471Z,4.33
2018-11-02T00:52:08.658Z,4.17
2018-11-02T00:57:11.857Z,4.77
2018-11-02T01:02:15.079Z,4.07
2018-11-02T01:07:18.253Z,3.93
2018-11-02T01:12:21.450Z,6.03
2018-11-02T01:17:24.671Z,4.03
2018-11-02T01:22:28.892Z,3.67
2018-11-02T01:27:32.101Z,4.47
2018-11-02T01:32:35.281Z,5.13
2018-11-02T01:37:38.514Z,2.77
2018-11-02T01:42:41.769Z,2.97
2018-11-02T01:47:45.054Z,2.00
2018-11-02T01:52:48.238Z,1.93
2018-11-02T01:57:51.455Z,2.17
2018-11-02T02:02:54.638Z,2.07
2018-11-02T02:07:57.958Z,2.07
2018-11-02T02:13:02.334Z,1.50
2018-11-02T02:18:05.597Z,1.80
2018-11-02T02:23:08.764Z,1.90
2018-11-02T02:28:11.955Z,1.83
2018-11-02T02:33:15.226Z,1.73
2018-11-02T02:38:18.425Z,1.63
2018-11-02T02:43:21.682Z,1.27
2018-11-02T02:48:24.906Z,2.07
2018-11-02T02:53:28.090Z,1.70
2018-11-02T02:58:31.313Z,1.50
2018-11-02T03:03:34.757Z,1.47
2018-11-02T03:08:37.936Z,1.93
2018-11-02T03:13:41.178Z,1.67
2018-11-02T03:18:44.960Z,1.57
2018-11-02T03:23:48.072Z,1.77
2018-11-02T03:28:51.302Z,2.33
2018-11-02T03:33:54.492Z,2.50
2018-11-02T03:38:57.722Z,2.10
2018-11-02T03:44:00.916Z,3.93
2018-11-02T03:49:04.238Z,3.33
2018-11-02T03:54:07.717Z,3.37
2018-11-02T03:59:10.969Z,4.27
2018-11-02T04:04:14.363Z,3.87
2018-11-02T04:09:17.585Z,3.30
2018-11-02T04:14:20.727Z,4.07
2018-11-02T04:19:23.921Z,4.20
2018-11-02T04:24:28.706Z,3.67
2018-11-02T04:29:31.954Z,4.67
2018-11-02T04:34:35.390Z,4.87
2018-11-02T04:39:38.708Z,5.20
2018-11-02T04:44:42.837Z,5.83
2018-11-02T04:49:46.021Z,5.50
2018-11-02T04:54:49.258Z,5.90
2018-11-02T04:59:52.454Z,5.97
2018-11-02T05:04:55.643Z,7.10
2018-11-02T05:09:59.399Z,6.77
2018-11-02T05:15:02.615Z,6.97
2018-11-02T05:20:06.910Z,6.67
2018-11-02T05:25:10.731Z,7.10
2018-11-02T05:30:13.935Z,7.90
2018-11-02T05:35:17.183Z,9.07
2018-11-02T05:40:20.362Z,8.40
2018-11-02T05:45:24.142Z,9.20
2018-11-02T05:50:27.345Z,10.30
2018-11-02T05:55:30.672Z,11.80
2018-11-02T06:00:33.864Z,10.77
2018-11-02T06:05:37.066Z,12.27
2018-11-02T06:10:40.261Z,9.97
2018-11-02T06:15:43.490Z,11.17
2018-11-02T06:20:46.703Z,10.70
2018-11-02T06:25:49.986Z,10.60
2018-11-02T06:30:53.230Z,9.57
2018-11-02T06:35:56.541Z,9.20
2018-11-02T06:40:59.928Z,9.60
2018-11-02T06:46:03.106Z,9.03
2018-11-02T06:51:06.433Z,10.67
2018-11-02T06:56:09.551Z,10.17
2018-11-02T07:01:12.726Z,9.77
2018-11-02T07:06:15.962Z,8.93
2018-11-02T07:11:19.197Z,9.03
2018-11-02T07:16:22.380Z,8.63
2018-11-02T07:21:25.566Z,9.17
2018-11-02T07:26:29.015Z,9.37
2018-11-02T07:31:32.198Z,9.03
2018-11-02T07:36:35.538Z,10.80
2018-11-02T07:41:38.738Z,10.87
2018-11-02T07:46:41.988Z,11.27
2018-11-02T07:51:45.222Z,11.90
2018-11-02T07:56:48.433Z,11.53
2018-11-02T08:01:51.803Z,11.80
2018-11-02T08:06:54.903Z,12.30
2018-11-02T08:11:58.269Z,11.67
2018-11-02T08:17:01.463Z,11.03
2018-11-02T08:22:05.174Z,9.90
2018-11-02T08:27:08.410Z,10.43
2018-11-02T08:32:11.712Z,10.20
2018-11-02T08:37:14.847Z,9.27
2018-11-02T08:42:18.081Z,9.33
2018-11-02T08:47:21.344Z,9.17
2018-11-02T08:52:27.725Z,8.33
2018-11-02T08:57:30.853Z,9.37
2018-11-02T09:02:34.101Z,9.60
2018-11-02T09:07:37.675Z,9.23
2018-11-02T09:12:41.026Z,10.40
2018-11-02T09:17:45.280Z,10.17
2018-11-02T09:22:48.494Z,10.60
2018-11-02T09:27:51.742Z,10.83
2018-11-02T09:32:54.906Z,11.00
2018-11-02T09:37:58.234Z,10.83
2018-11-02T09:43:01.679Z,11.00
2018-11-02T09:48:05.521Z,10.77
2018-11-02T09:53:09.823Z,10.70
2018-11-02T09:58:13.038Z,10.50
2018-11-02T10:03:18.520Z,10.83
2018-11-02T10:08:21.846Z,11.37
2018-11-02T10:13:25.007Z,12.23
2018-11-02T10:18:28.226Z,10.87
2018-11-02T10:23:31.414Z,11.07
2018-11-02T10:28:38.042Z,10.63
2018-11-02T10:33:41.278Z,10.33
2018-11-02T10:38:44.572Z,8.70
2018-11-02T10:43:47.814Z,8.00
2018-11-02T10:48:51.034Z,14.70
2018-11-02T10:53:54.381Z,8.77
2018-11-02T10:58:58.376Z,10.80
2018-11-02T11:04:01.618Z,11.80
2018-11-02T11:09:08.335Z,9.17
2018-11-02T11:14:12.118Z,9.00
2018-11-02T11:19:16.324Z,16.27
2018-11-02T11:24:19.512Z,9.20
2018-11-02T11:29:22.853Z,9.30
2018-11-02T11:34:26.974Z,8.20
2018-11-02T11:39:30.225Z,8.20
2018-11-02T11:44:33.400Z,7.80
2018-11-02T11:49:36.634Z,8.57
2018-11-02T11:54:39.986Z,7.27
2018-11-02T11:59:43.115Z,6.83
2018-11-02T12:04:53.377Z,7.33
2018-11-02T12:09:57.325Z,8.60
2018-11-02T12:15:01.529Z,8.00
2018-11-02T12:20:07.937Z,8.60
2018-11-02T12:25:12.470Z,8.97
2018-11-02T12:30:16.864Z,5.50
2018-11-02T12:35:20.723Z,4.97
2018-11-02T12:40:24.558Z,3.60
2018-11-02T12:45:27.771Z,2.60
2018-11-02T12:50:31.139Z,1.97
2018-11-02T12:55:34.182Z,3.40
2018-11-02T13:00:38.007Z,3.30
2018-11-02T13:05:41.230Z,2.50
2018-11-02T13:10:44.464Z,2.90
2018-11-02T13:15:47.749Z,2.83
2018-11-02T13:20:52.741Z,3.57
2018-11-02T13:25:56.987Z,3.47
2018-11-02T13:31:01.021Z,2.97
2018-11-02T13:36:06.249Z,3.20
2018-11-02T13:41:09.504Z,2.47
2018-11-02T13:46:12.789Z,2.10
2018-11-02T13:51:16.093Z,2.70
2018-11-02T13:56:19.304Z,2.07
2018-11-02T14:01:23.724Z,2.17
2018-11-02T14:06:26.965Z,2.97
2018-11-02T14:11:30.296Z,2.40
2018-11-02T14:16:33.566Z,2.93
2018-11-02T14:21:36.810Z,3.17
2018-11-02T14:26:43.903Z,3.97
2018-11-02T14:31:47.162Z,2.90
2018-11-02T14:36:56.035Z,3.30
2018-11-02T14:41:59.262Z,3.20
2018-11-02T14:47:04.659Z,2.80
2018-11-02T14:52:07.883Z,2.87
2018-11-02T14:57:11.314Z,1.67
2018-11-02T15:02:14.554Z,1.70
2018-11-02T15:07:17.866Z,1.23
2018-11-02T15:12:21.310Z,0.90
2018-11-02T15:17:26.214Z,0.97
2018-11-02T15:22:29.503Z,1.27
2018-11-02T15:27:32.749Z,1.30
2018-11-02T15:32:35.962Z,1.70
2018-11-02T15:37:39.282Z,1.90
2018-11-02T15:42:42.909Z,1.83
2018-11-02T15:47:48.234Z,1.63
2018-11-02T15:52:51.579Z,1.20
2018-11-02T15:57:55.940Z,2.60
2018-11-02T16:02:59.145Z,1.20
2018-11-02T16:08:02.370Z,1.30
2018-11-02T16:13:05.566Z,1.37
2018-11-02T16:18:08.786Z,1.23
2018-11-02T16:23:12.155Z,1.47
2018-11-02T16:28:18.225Z,1.93
2018-11-02T16:33:21.578Z,2.73
2018-11-02T16:38:30.236Z,2.30
2018-11-02T16:43:47.806Z,2.80
2018-11-02T16:48:54.891Z,2.60
2018-11-02T16:53:58.090Z,3.00
2018-11-02T16:59:02.542Z,3.37
2018-11-02T17:04:05.798Z,3.80
2018-11-02T17:09:11.494Z,3.87
2018-11-02T17:14:14.830Z,4.07
2018-11-02T17:19:18.019Z,3.77
2018-11-02T17:24:21.307Z,3.73
2018-11-02T17:29:26.256Z,3.50
2018-11-02T17:34:31.928Z,3.30
2018-11-02T17:39:39.930Z,3.60
2018-11-02T17:44:45.206Z,3.43
2018-11-02T17:49:55.558Z,6.43
2018-11-02T17:54:58.884Z,5.63
2018-11-02T18:00:02.274Z,4.50
2018-11-02T18:05:06.434Z,4.10
2018-11-02T18:10:12.373Z,7.00
2018-11-02T18:15:15.625Z,4.30
2018-11-02T18:20:20.017Z,6.00
2018-11-02T18:25:23.279Z,5.50
2018-11-02T18:30:28.460Z,6.10
2018-11-02T18:35:31.774Z,7.20
2018-11-02T18:40:34.918Z,6.60
2018-11-02T18:45:38.740Z,6.10
2018-11-02T18:50:41.974Z,5.87
2018-11-02T18:55:45.650Z,5.37
2018-11-02T19:00:48.872Z,6.20
2018-11-02T19:05:52.145Z,6.50
2018-11-02T19:10:56.055Z,5.03
2018-11-02T19:16:00.334Z,3.83
2018-11-02T19:21:03.550Z,3.67
2018-11-02T19:26:06.783Z,4.07
2018-11-02T19:31:09.986Z,3.57
2018-11-02T19:36:13.540Z,4.50
2018-11-02T19:41:16.738Z,4.20
2018-11-02T19:46:19.981Z,10.40
2018-11-02T19:51:23.285Z,6.27
2018-11-02T19:56:27.586Z,4.60
2018-11-02T20:01:30.789Z,4.07
2018-11-02T20:06:34.024Z,31.00
2018-11-02T20:11:37.310Z,4.77
2018-11-02T20:16:40.522Z,5.00
2018-11-02T20:21:43.730Z,4.37
2018-11-02T20:26:47.971Z,4.73
2018-11-02T20:31:51.198Z,5.30
2018-11-02T20:36:54.367Z,5.77
2018-11-02T20:41:57.587Z,5.83
2018-11-02T20:47:00.807Z,5.07
2018-11-02T20:52:04.882Z,4.37
2018-11-02T20:57:08.078Z,5.10
2018-11-02T21:02:11.308Z,5.50
2018-11-02T21:07:14.628Z,4.83
2018-11-02T21:12:21.072Z,4.43
2018-11-02T21:17:24.397Z,4.70
2018-11-02T21:22:27.671Z,4.40
2018-11-02T21:27:30.858Z,4.40
2018-11-02T21:32:34.076Z,4.40
2018-11-02T21:37:37.752Z,4.73
2018-11-02T21:42:41.435Z,4.20
2018-11-02T21:47:45.011Z,4.73
2018-11-02T21:52:48.354Z,4.27
2018-11-02T21:57:51.572Z,6.00
2018-11-02T22:02:54.790Z,4.43
2018-11-02T22:07:58.017Z,4.10
2018-11-02T22:13:01.362Z,5.20
2018-11-02T22:18:04.554Z,4.57
2018-11-02T22:23:07.862Z,4.60
2018-11-02T22:28:11.180Z,5.53
2018-11-02T22:33:14.459Z,4.50
2018-11-02T22:38:18.066Z,5.80
2018-11-02T22:43:21.278Z,4.80
2018-11-02T22:48:25.454Z,5.20
2018-11-02T22:53:28.626Z,4.50
2018-11-02T22:58:31.822Z,5.33
2018-11-02T23:03:35.030Z,5.00
2018-11-02T23:08:38.280Z,5.73
2018-11-02T23:13:41.498Z,5.40
2018-11-02T23:18:44.755Z,5.40
2018-11-02T23:23:47.962Z,5.90
2018-11-02T23:28:51.156Z,5.07
2018-11-02T23:33:54.377Z,4.73
2018-11-02T23:38:57.579Z,5.10
2018-11-02T23:44:00.761Z,5.73
2018-11-02T23:49:03.953Z,6.23
2018-11-02T23:54:07.230Z,6.57
2018-11-02T23:59:10.410Z,6.03
